sensor_id;sensor_type;location;lat;lon;timestamp;P1;durP1;ratioP1;P2;durP2;ratioP2
23614;SDS011;11985;49.404;7.734;2023-09-19T00:02:55;3.83;;;2.23;;
23614;SDS011;11985;49.404;7.734;2023-09-19T00:07:59;6.47;;;2.65;;
23614;SDS011;11985;49.404;7.734;2023-09-19T00:13:02;8.23;;;2.70;;
23614;SDS011;11985;49.404;7.734;2023-09-19T00:18:06;5.30;;;2.40;;
23614;SDS011;11985;49.404;7.734;2023-09-19T00:23:08;8.70;;;2.85;;
23614;SDS011;11985;49.404;7.734;2023-09-19T00:28:12;9.05;;;2.75;;
23614;SDS011;11985;49.404;7.734;2023-09-19T00:33:14;4.63;;;3.10;;
23614;SDS011;11985;49.404;7.734;2023-09-19T00:38:16;7.45;;;3.30;;
23614;SDS011;11985;49.404;7.734;2023-09-19T00:43:22;8.52;;;3.50;;
23614;SDS011;11985;49.404;7.734;2023-09-19T00:48:25;4.40;;;3.05;;
23614;SDS011;11985;49.404;7.734;2023-09-19T00:53:28;6.47;;;3.10;;
23614;SDS011;11985;49.404;7.734;2023-09-19T00:58:33;4.75;;;3.20;;
23614;SDS011;11985;49.404;7.734;2023-09-19T01:03:35;7.10;;;3.35;;
23614;SDS011;11985;49.404;7.734;2023-09-19T01:08:37;7.75;;;3.53;;
23614;SDS011;11985;49.404;7.734;2023-09-19T01:13:43;7.25;;;3.15;;
23614;SDS011;11985;49.404;7.734;2023-09-19T01:18:54;11.13;;;3.50;;
23614;SDS011;11985;49.404;7.734;2023-09-19T01:29:49;5.70;;;3.80;;
23614;SDS011;11985;49.404;7.734;2023-09-19T01:34:53;10.13;;;3.90;;
23614;SDS011;11985;49.404;7.734;2023-09-19T01:39:58;6.20;;;3.88;;
23614;SDS011;11985;49.404;7.734;2023-09-19T01:45:18;7.22;;;4.45;;
23614;SDS011;11985;49.404;7.734;2023-09-19T01:50:30;11.02;;;4.63;;
23614;SDS011;11985;49.404;7.734;2023-09-19T01:55:37;7.88;;;4.97;;
23614;SDS011;11985;49.404;7.734;2023-09-19T02:00:44;8.90;;;5.28;;
23614;SDS011;11985;49.404;7.734;2023-09-19T02:05:51;7.70;;;4.30;;
23614;SDS011;11985;49.404;7.734;2023-09-19T02:10:53;8.95;;;4.60;;
23614;SDS011;11985;49.404;7.734;2023-09-19T02:15:55;6.60;;;4.50;;
23614;SDS011;11985;49.404;7.734;2023-09-19T02:20:58;13.50;;;4.38;;
23614;SDS011;11985;49.404;7.734;2023-09-19T02:25:59;9.23;;;5.88;;
23614;SDS011;11985;49.404;7.734;2023-09-19T02:31:01;9.27;;;6.25;;
23614;SDS011;11985;49.404;7.734;2023-09-19T02:36:05;8.15;;;5.75;;
23614;SDS011;11985;49.404;7.734;2023-09-19T02:41:07;8.37;;;4.47;;
23614;SDS011;11985;49.404;7.734;2023-09-19T02:46:09;8.80;;;4.53;;
23614;SDS011;11985;49.404;7.734;2023-09-19T02:51:13;7.95;;;4.57;;
23614;SDS011;11985;49.404;7.734;2023-09-19T02:56:15;9.98;;;5.13;;
23614;SDS011;11985;49.404;7.734;2023-09-19T03:01:16;9.98;;;5.63;;
23614;SDS011;11985;49.404;7.734;2023-09-19T03:06:21;11.88;;;6.10;;
23614;SDS011;11985;49.404;7.734;2023-09-19T03:11:24;10.68;;;5.28;;
23614;SDS011;11985;49.404;7.734;2023-09-19T03:16:25;11.93;;;5.10;;
23614;SDS011;11985;49.404;7.734;2023-09-19T03:21:28;11.93;;;5.75;;
23614;SDS011;11985;49.404;7.734;2023-09-19T03:26:30;8.48;;;4.78;;
23614;SDS011;11985;49.404;7.734;2023-09-19T03:31:33;9.13;;;3.78;;
23614;SDS011;11985;49.404;7.734;2023-09-19T03:36:39;5.53;;;3.22;;
23614;SDS011;11985;49.404;7.734;2023-09-19T03:41:41;7.95;;;3.45;;
23614;SDS011;11985;49.404;7.734;2023-09-19T03:46:42;7.70;;;3.67;;
23614;SDS011;11985;49.404;7.734;2023-09-19T03:51:45;15.77;;;3.95;;
23614;SDS011;11985;49.404;7.734;2023-09-19T03:56:47;8.13;;;3.38;;
23614;SDS011;11985;49.404;7.734;2023-09-19T04:01:48;10.25;;;3.40;;
23614;SDS011;11985;49.404;7.734;2023-09-19T04:06:52;6.32;;;3.42;;
23614;SDS011;11985;49.404;7.734;2023-09-19T04:11:53;13.60;;;3.30;;
23614;SDS011;11985;49.404;7.734;2023-09-19T04:16:55;12.30;;;2.83;;
23614;SDS011;11985;49.404;7.734;2023-09-19T04:21:58;8.00;;;2.75;;
23614;SDS011;11985;49.404;7.734;2023-09-19T04:26:59;10.07;;;2.72;;
23614;SDS011;11985;49.404;7.734;2023-09-19T04:32:01;8.25;;;2.80;;
23614;SDS011;11985;49.404;7.734;2023-09-19T04:37:07;8.20;;;2.75;;
23614;SDS011;11985;49.404;7.734;2023-09-19T04:42:09;7.90;;;3.08;;
23614;SDS011;11985;49.404;7.734;2023-09-19T04:47:14;14.88;;;3.00;;
23614;SDS011;11985;49.404;7.734;2023-09-19T04:52:17;11.18;;;2.55;;
23614;SDS011;11985;49.404;7.734;2023-09-19T04:57:19;9.25;;;2.35;;
23614;SDS011;11985;49.404;7.734;2023-09-19T05:02:20;6.38;;;2.33;;
23614;SDS011;11985;49.404;7.734;2023-09-19T05:07:23;8.00;;;2.10;;
23614;SDS011;11985;49.404;7.734;2023-09-19T05:12:26;11.47;;;2.47;;
23614;SDS011;11985;49.404;7.734;2023-09-19T05:17:28;8.32;;;2.67;;
23614;SDS011;11985;49.404;7.734;2023-09-19T05:22:31;8.50;;;2.75;;
23614;SDS011;11985;49.404;7.734;2023-09-19T05:27:34;15.13;;;3.65;;
23614;SDS011;11985;49.404;7.734;2023-09-19T05:32:35;11.57;;;3.40;;
23614;SDS011;11985;49.404;7.734;2023-09-19T05:37:39;8.07;;;3.00;;
23614;SDS011;11985;49.404;7.734;2023-09-19T05:42:40;9.50;;;3.15;;
23614;SDS011;11985;49.404;7.734;2023-09-19T05:47:44;13.40;;;2.80;;
23614;SDS011;11985;49.404;7.734;2023-09-19T05:52:52;7.72;;;2.97;;
23614;SDS011;11985;49.404;7.734;2023-09-19T05:57:56;10.40;;;2.70;;
23614;SDS011;11985;49.404;7.734;2023-09-19T06:02:58;10.30;;;2.80;;
23614;SDS011;11985;49.404;7.734;2023-09-19T06:08:04;9.50;;;2.75;;
23614;SDS011;11985;49.404;7.734;2023-09-19T06:13:07;6.18;;;2.30;;
23614;SDS011;11985;49.404;7.734;2023-09-19T06:18:11;7.30;;;2.85;;
23614;SDS011;11985;49.404;7.734;2023-09-19T06:23:21;9.38;;;2.58;;
23614;SDS011;11985;49.404;7.734;2023-09-19T06:28:23;9.10;;;3.28;;
23614;SDS011;11985;49.404;7.734;2023-09-19T06:33:25;11.93;;;4.40;;
23614;SDS011;11985;49.404;7.734;2023-09-19T06:38:28;9.70;;;3.58;;
23614;SDS011;11985;49.404;7.734;2023-09-19T06:43:30;9.25;;;3.45;;
23614;SDS011;11985;49.404;7.734;2023-09-19T06:48:32;8.27;;;3.45;;
23614;SDS011;11985;49.404;7.734;2023-09-19T06:53:36;9.85;;;3.28;;
23614;SDS011;11985;49.404;7.734;2023-09-19T06:58:37;10.13;;;3.38;;
23614;SDS011;11985;49.404;7.734;2023-09-19T07:03:39;7.00;;;3.28;;
23614;SDS011;11985;49.404;7.734;2023-09-19T07:08:42;11.65;;;3.50;;
23614;SDS011;11985;49.404;7.734;2023-09-19T07:13:45;7.28;;;3.78;;
23614;SDS011;11985;49.404;7.734;2023-09-19T07:18:47;7.70;;;3.60;;
23614;SDS011;11985;49.404;7.734;2023-09-19T07:23:50;6.47;;;3.40;;
23614;SDS011;11985;49.404;7.734;2023-09-19T07:28:51;7.07;;;3.80;;
23614;SDS011;11985;49.404;7.734;2023-09-19T07:33:53;6.97;;;3.90;;
23614;SDS011;11985;49.404;7.734;2023-09-19T07:38:56;7.18;;;3.88;;
23614;SDS011;11985;49.404;7.734;2023-09-19T07:43:58;9.05;;;3.10;;
23614;SDS011;11985;49.404;7.734;2023-09-19T07:48:59;9.77;;;3.60;;
23614;SDS011;11985;49.404;7.734;2023-09-19T07:54:02;9.23;;;3.33;;
23614;SDS011;11985;49.404;7.734;2023-09-19T07:59:04;13.57;;;2.20;;
23614;SDS011;11985;49.404;7.734;2023-09-19T08:04:06;12.38;;;2.22;;
23614;SDS011;11985;49.404;7.734;2023-09-19T08:09:10;12.55;;;2.55;;
23614;SDS011;11985;49.404;7.734;2023-09-19T08:14:14;10.70;;;2.20;;
23614;SDS011;11985;49.404;7.734;2023-09-19T08:19:16;13.75;;;2.20;;
23614;SDS011;11985;49.404;7.734;2023-09-19T08:24:19;16.38;;;2.83;;
23614;SDS011;11985;49.404;7.734;2023-09-19T08:29:21;12.73;;;2.53;;
23614;SDS011;11985;49.404;7.734;2023-09-19T08:34:27;6.15;;;1.80;;
23614;SDS011;11985;49.404;7.734;2023-09-19T08:39:34;10.10;;;2.08;;
23614;SDS011;11985;49.404;7.734;2023-09-19T08:44:37;8.13;;;2.45;;
23614;SDS011;11985;49.404;7.734;2023-09-19T08:49:41;8.13;;;1.88;;
23614;SDS011;11985;49.404;7.734;2023-09-19T08:54:55;9.02;;;2.00;;
23614;SDS011;11985;49.404;7.734;2023-09-19T09:00:02;7.10;;;2.17;;
23614;SDS011;11985;49.404;7.734;2023-09-19T09:05:10;8.13;;;2.22;;
23614;SDS011;11985;49.404;7.734;2023-09-19T09:10:13;9.20;;;2.20;;
23614;SDS011;11985;49.404;7.734;2023-09-19T09:15:16;10.75;;;1.73;;
23614;SDS011;11985;49.404;7.734;2023-09-19T09:20:22;8.95;;;1.85;;
23614;SDS011;11985;49.404;7.734;2023-09-19T09:25:25;9.85;;;2.10;;
23614;SDS011;11985;49.404;7.734;2023-09-19T09:30:56;7.55;;;1.70;;
23614;SDS011;11985;49.404;7.734;2023-09-19T09:35:59;5.68;;;1.70;;
23614;SDS011;11985;49.404;7.734;2023-09-19T09:41:04;6.60;;;1.45;;
23614;SDS011;11985;49.404;7.734;2023-09-19T09:46:08;9.55;;;1.60;;
23614;SDS011;11985;49.404;7.734;2023-09-19T09:51:33;6.07;;;1.90;;
23614;SDS011;11985;49.404;7.734;2023-09-19T09:56:36;6.00;;;1.45;;
23614;SDS011;11985;49.404;7.734;2023-09-19T10:01:54;12.20;;;2.22;;
23614;SDS011;11985;49.404;7.734;2023-09-19T10:06:56;6.47;;;1.88;;
23614;SDS011;11985;49.404;7.734;2023-09-19T10:12:05;8.35;;;1.73;;
23614;SDS011;11985;49.404;7.734;2023-09-19T10:17:09;6.95;;;1.80;;
23614;SDS011;11985;49.404;7.734;2023-09-19T10:22:11;10.40;;;2.35;;
23614;SDS011;11985;49.404;7.734;2023-09-19T10:27:18;6.55;;;1.92;;
23614;SDS011;11985;49.404;7.734;2023-09-19T10:32:22;9.55;;;1.77;;
23614;SDS011;11985;49.404;7.734;2023-09-19T10:37:24;4.53;;;1.30;;
23614;SDS011;11985;49.404;7.734;2023-09-19T10:42:29;5.28;;;1.45;;
23614;SDS011;11985;49.404;7.734;2023-09-19T10:47:34;8.45;;;1.83;;
23614;SDS011;11985;49.404;7.734;2023-09-19T10:52:38;7.65;;;1.60;;
23614;SDS011;11985;49.404;7.734;2023-09-19T10:57:45;4.57;;;1.45;;
23614;SDS011;11985;49.404;7.734;2023-09-19T11:08:18;5.75;;;1.30;;
23614;SDS011;11985;49.404;7.734;2023-09-19T11:13:25;3.25;;;1.23;;
23614;SDS011;11985;49.404;7.734;2023-09-19T11:29:33;4.80;;;1.30;;
23614;SDS011;11985;49.404;7.734;2023-09-19T11:34:42;3.97;;;1.10;;
23614;SDS011;11985;49.404;7.734;2023-09-19T11:39:50;4.05;;;1.10;;
23614;SDS011;11985;49.404;7.734;2023-09-19T11:50:47;3.67;;;1.17;;
23614;SDS011;11985;49.404;7.734;2023-09-19T11:55:51;4.63;;;1.33;;
23614;SDS011;11985;49.404;7.734;2023-09-19T12:00:54;3.03;;;1.40;;
23614;SDS011;11985;49.404;7.734;2023-09-19T12:05:59;2.53;;;1.27;;
23614;SDS011;11985;49.404;7.734;2023-09-19T12:16:11;2.63;;;1.25;;
23614;SDS011;11985;49.404;7.734;2023-09-19T12:21:23;2.75;;;1.30;;
23614;SDS011;11985;49.404;7.734;2023-09-19T12:26:27;5.50;;;1.77;;
23614;SDS011;11985;49.404;7.734;2023-09-19T12:31:29;2.03;;;1.15;;
23614;SDS011;11985;49.404;7.734;2023-09-19T12:36:37;3.40;;;1.10;;
23614;SDS011;11985;49.404;7.734;2023-09-19T12:41:40;3.28;;;1.70;;
23614;SDS011;11985;49.404;7.734;2023-09-19T12:46:42;6.25;;;1.40;;
23614;SDS011;11985;49.404;7.734;2023-09-19T12:51:45;3.00;;;1.35;;
23614;SDS011;11985;49.404;7.734;2023-09-19T12:56:47;4.28;;;1.13;;
23614;SDS011;11985;49.404;7.734;2023-09-19T13:01:50;2.55;;;1.10;;
23614;SDS011;11985;49.404;7.734;2023-09-19T13:07:07;4.93;;;1.30;;
23614;SDS011;11985;49.404;7.734;2023-09-19T13:17:41;2.10;;;1.05;;
23614;SDS011;11985;49.404;7.734;2023-09-19T13:22:45;3.88;;;1.00;;
23614;SDS011;11985;49.404;7.734;2023-09-19T13:27:50;3.20;;;1.10;;
23614;SDS011;11985;49.404;7.734;2023-09-19T13:38:07;3.58;;;1.13;;
23614;SDS011;11985;49.404;7.734;2023-09-19T13:43:11;8.90;;;1.40;;
23614;SDS011;11985;49.404;7.734;2023-09-19T13:48:13;2.95;;;1.35;;
23614;SDS011;11985;49.404;7.734;2023-09-19T13:53:16;6.07;;;1.20;;
23614;SDS011;11985;49.404;7.734;2023-09-19T13:58:18;6.07;;;1.17;;
23614;SDS011;11985;49.404;7.734;2023-09-19T14:03:21;4.80;;;1.30;;
23614;SDS011;11985;49.404;7.734;2023-09-19T14:08:25;3.83;;;1.30;;
23614;SDS011;11985;49.404;7.734;2023-09-19T14:13:27;3.85;;;1.20;;
23614;SDS011;11985;49.404;7.734;2023-09-19T14:18:28;2.85;;;1.58;;
23614;SDS011;11985;49.404;7.734;2023-09-19T14:23:35;4.82;;;1.05;;
23614;SDS011;11985;49.404;7.734;2023-09-19T14:28:37;2.33;;;1.17;;
23614;SDS011;11985;49.404;7.734;2023-09-19T14:33:39;3.90;;;1.00;;
23614;SDS011;11985;49.404;7.734;2023-09-19T14:38:42;5.03;;;1.10;;
23614;SDS011;11985;49.404;7.734;2023-09-19T14:43:44;4.70;;;1.02;;
23614;SDS011;11985;49.404;7.734;2023-09-19T14:48:46;3.00;;;1.02;;
23614;SDS011;11985;49.404;7.734;2023-09-19T14:53:49;3.45;;;0.95;;
23614;SDS011;11985;49.404;7.734;2023-09-19T14:58:51;2.00;;;0.82;;
23614;SDS011;11985;49.404;7.734;2023-09-19T15:03:53;1.60;;;1.00;;
23614;SDS011;11985;49.404;7.734;2023-09-19T15:08:56;4.07;;;0.80;;
23614;SDS011;11985;49.404;7.734;2023-09-19T15:13:58;4.18;;;1.08;;
23614;SDS011;11985;49.404;7.734;2023-09-19T15:19:00;1.75;;;1.05;;
23614;SDS011;11985;49.404;7.734;2023-09-19T15:24:03;3.30;;;1.00;;
23614;SDS011;11985;49.404;7.734;2023-09-19T15:29:08;3.47;;;1.20;;
23614;SDS011;11985;49.404;7.734;2023-09-19T15:34:10;3.60;;;0.95;;
23614;SDS011;11985;49.404;7.734;2023-09-19T15:39:15;2.13;;;1.25;;
23614;SDS011;11985;49.404;7.734;2023-09-19T15:44:18;3.17;;;1.10;;
23614;SDS011;11985;49.404;7.734;2023-09-19T15:49:20;2.38;;;1.10;;
23614;SDS011;11985;49.404;7.734;2023-09-19T15:54:24;3.72;;;1.20;;
23614;SDS011;11985;49.404;7.734;2023-09-19T15:59:27;4.25;;;1.30;;
23614;SDS011;11985;49.404;7.734;2023-09-19T16:04:30;4.25;;;0.98;;
23614;SDS011;11985;49.404;7.734;2023-09-19T16:09:36;0.90;;;0.63;;
23614;SDS011;11985;49.404;7.734;2023-09-19T16:14:38;2.33;;;1.10;;
23614;SDS011;11985;49.404;7.734;2023-09-19T16:19:40;4.18;;;1.15;;
23614;SDS011;11985;49.404;7.734;2023-09-19T16:24:43;3.88;;;1.20;;
23614;SDS011;11985;49.404;7.734;2023-09-19T16:29:45;3.45;;;1.20;;
23614;SDS011;11985;49.404;7.734;2023-09-19T16:34:48;1.50;;;0.70;;
23614;SDS011;11985;49.404;7.734;2023-09-19T16:39:51;1.52;;;0.70;;
23614;SDS011;11985;49.404;7.734;2023-09-19T16:44:52;1.90;;;1.10;;
23614;SDS011;11985;49.404;7.734;2023-09-19T16:49:54;2.47;;;0.90;;
23614;SDS011;11985;49.404;7.734;2023-09-19T16:54:57;1.75;;;0.93;;
23614;SDS011;11985;49.404;7.734;2023-09-19T16:59:59;3.80;;;1.20;;
23614;SDS011;11985;49.404;7.734;2023-09-19T17:05:01;2.53;;;1.00;;
23614;SDS011;11985;49.404;7.734;2023-09-19T17:10:05;2.75;;;1.15;;
23614;SDS011;11985;49.404;7.734;2023-09-19T17:15:07;3.58;;;1.10;;
23614;SDS011;11985;49.404;7.734;2023-09-19T17:20:10;2.17;;;0.85;;
23614;SDS011;11985;49.404;7.734;2023-09-19T17:25:13;4.47;;;1.08;;
23614;SDS011;11985;49.404;7.734;2023-09-19T17:30:16;4.00;;;1.00;;
23614;SDS011;11985;49.404;7.734;2023-09-19T17:35:18;1.23;;;0.95;;
23614;SDS011;11985;49.404;7.734;2023-09-19T17:40:22;5.32;;;1.00;;
23614;SDS011;11985;49.404;7.734;2023-09-19T17:45:23;2.47;;;0.80;;
23614;SDS011;11985;49.404;7.734;2023-09-19T17:50:25;4.30;;;1.15;;
23614;SDS011;11985;49.404;7.734;2023-09-19T17:55:28;2.55;;;1.02;;
23614;SDS011;11985;49.404;7.734;2023-09-19T18:00:29;1.02;;;0.85;;
23614;SDS011;11985;49.404;7.734;2023-09-19T18:05:31;3.30;;;0.90;;
23614;SDS011;11985;49.404;7.734;2023-09-19T18:10:37;8.00;;;1.10;;
23614;SDS011;11985;49.404;7.734;2023-09-19T18:15:39;3.55;;;1.17;;
23614;SDS011;11985;49.404;7.734;2023-09-19T18:20:41;3.30;;;0.90;;
23614;SDS011;11985;49.404;7.734;2023-09-19T18:25:44;2.33;;;0.90;;
23614;SDS011;11985;49.404;7.734;2023-09-19T18:30:46;1.58;;;1.10;;
23614;SDS011;11985;49.404;7.734;2023-09-19T18:35:48;4.03;;;1.48;;
23614;SDS011;11985;49.404;7.734;2023-09-19T18:40:51;5.05;;;1.20;;
23614;SDS011;11985;49.404;7.734;2023-09-19T18:45:55;2.08;;;1.00;;
23614;SDS011;11985;49.404;7.734;2023-09-19T18:56:03;1.40;;;1.00;;
23614;SDS011;11985;49.404;7.734;2023-09-19T19:01:06;1.77;;;1.10;;
23614;SDS011;11985;49.404;7.734;2023-09-19T19:06:09;4.72;;;1.15;;
23614;SDS011;11985;49.404;7.734;2023-09-19T19:11:16;4.25;;;0.85;;
23614;SDS011;11985;49.404;7.734;2023-09-19T19:16:21;2.00;;;1.10;;
23614;SDS011;11985;49.404;7.734;2023-09-19T19:21:26;1.08;;;0.98;;
23614;SDS011;11985;49.404;7.734;2023-09-19T19:26:29;1.55;;;1.00;;
23614;SDS011;11985;49.404;7.734;2023-09-19T19:31:31;1.63;;;1.00;;
23614;SDS011;11985;49.404;7.734;2023-09-19T19:36:34;2.65;;;1.00;;
23614;SDS011;11985;49.404;7.734;2023-09-19T19:41:37;2.67;;;1.17;;
23614;SDS011;11985;49.404;7.734;2023-09-19T19:46:38;1.60;;;1.10;;
23614;SDS011;11985;49.404;7.734;2023-09-19T19:51:40;2.55;;;1.42;;
23614;SDS011;11985;49.404;7.734;2023-09-19T19:56:44;3.17;;;1.30;;
23614;SDS011;11985;49.404;7.734;2023-09-19T20:01:47;3.63;;;1.17;;
23614;SDS011;11985;49.404;7.734;2023-09-19T20:06:49;5.00;;;1.30;;
23614;SDS011;11985;49.404;7.734;2023-09-19T20:11:52;4.03;;;1.10;;
23614;SDS011;11985;49.404;7.734;2023-09-19T20:16:56;1.85;;;1.08;;
23614;SDS011;11985;49.404;7.734;2023-09-19T20:22:00;2.10;;;0.93;;
23614;SDS011;11985;49.404;7.734;2023-09-19T20:27:03;2.67;;;1.02;;
23614;SDS011;11985;49.404;7.734;2023-09-19T20:32:06;1.70;;;1.00;;
23614;SDS011;11985;49.404;7.734;2023-09-19T20:37:09;2.40;;;1.13;;
23614;SDS011;11985;49.404;7.734;2023-09-19T20:42:12;2.78;;;1.20;;
23614;SDS011;11985;49.404;7.734;2023-09-19T20:47:13;2.15;;;1.20;;
23614;SDS011;11985;49.404;7.734;2023-09-19T20:52:15;3.30;;;1.23;;
23614;SDS011;11985;49.404;7.734;2023-09-19T20:57:19;2.72;;;1.48;;
23614;SDS011;11985;49.404;7.734;2023-09-19T21:02:21;4.90;;;1.30;;
23614;SDS011;11985;49.404;7.734;2023-09-19T21:07:22;1.90;;;1.20;;
23614;SDS011;11985;49.404;7.734;2023-09-19T21:12:25;3.80;;;1.08;;
23614;SDS011;11985;49.404;7.734;2023-09-19T21:17:27;2.38;;;1.40;;
23614;SDS011;11985;49.404;7.734;2023-09-19T21:22:29;2.83;;;1.15;;
23614;SDS011;11985;49.404;7.734;2023-09-19T21:27:32;2.70;;;1.40;;
23614;SDS011;11985;49.404;7.734;2023-09-19T21:32:34;2.08;;;1.25;;
23614;SDS011;11985;49.404;7.734;2023-09-19T21:37:36;4.93;;;1.20;;
23614;SDS011;11985;49.404;7.734;2023-09-19T21:42:39;2.83;;;1.50;;
23614;SDS011;11985;49.404;7.734;2023-09-19T21:47:41;3.42;;;1.45;;
23614;SDS011;11985;49.404;7.734;2023-09-19T21:52:42;4.72;;;1.10;;
23614;SDS011;11985;49.404;7.734;2023-09-19T21:57:45;1.95;;;1.30;;
23614;SDS011;11985;49.404;7.734;2023-09-19T22:02:47;3.55;;;1.40;;
23614;SDS011;11985;49.404;7.734;2023-09-19T22:07:49;3.85;;;1.35;;
23614;SDS011;11985;49.404;7.734;2023-09-19T22:12:52;5.25;;;1.50;;
23614;SDS011;11985;49.404;7.734;2023-09-19T22:17:55;5.43;;;1.75;;
23614;SDS011;11985;49.404;7.734;2023-09-19T22:22:58;3.53;;;1.20;;
23614;SDS011;11985;49.404;7.734;2023-09-19T22:28:01;2.00;;;1.30;;
23614;SDS011;11985;49.404;7.734;2023-09-19T22:33:04;2.10;;;1.30;;
23614;SDS011;11985;49.404;7.734;2023-09-19T22:38:10;2.95;;;1.52;;
23614;SDS011;11985;49.404;7.734;2023-09-19T22:43:14;3.42;;;1.30;;
23614;SDS011;11985;49.404;7.734;2023-09-19T22:48:18;3.85;;;1.20;;
23614;SDS011;11985;49.404;7.734;2023-09-19T22:53:24;2.83;;;1.42;;
23614;SDS011;11985;49.404;7.734;2023-09-19T22:58:29;3.43;;;1.20;;
23614;SDS011;11985;49.404;7.734;2023-09-19T23:03:31;3.03;;;1.30;;
23614;SDS011;11985;49.404;7.734;2023-09-19T23:08:32;2.17;;;1.23;;
23614;SDS011;11985;49.404;7.734;2023-09-19T23:13:35;3.10;;;1.67;;
23614;SDS011;11985;49.404;7.734;2023-09-19T23:18:38;3.03;;;1.48;;
23614;SDS011;11985;49.404;7.734;2023-09-19T23:23:43;2.20;;;1.40;;
23614;SDS011;11985;49.404;7.734;2023-09-19T23:28:47;2.33;;;1.30;;
23614;SDS011;11985;49.404;7.734;2023-09-19T23:33:50;3.20;;;1.20;;
23614;SDS011;11985;49.404;7.734;2023-09-19T23:38:52;2.03;;;1.20;;
23614;SDS011;11985;49.404;7.734;2023-09-19T23:43:59;2.08;;;1.20;;
23614;SDS011;11985;49.404;7.734;2023-09-19T23:49:01;2.85;;;1.25;;
23614;SDS011;11985;49.404;7.734;2023-09-19T23:54:07;2.38;;;1.30;;
23614;SDS011;11985;49.404;7.734;2023-09-19T23:59:15;3.58;;;1.38;;
